• Join FlightAware (Why Join?)
  • Login
  • US Flag 
09:24AM EST


 

Airport Tracker/Info


-or-


 

Live Flight TrackerFlight Track Log ✈ JIA2442 ✈ 15-Apr-2012 ✈ KFLO - KCLT

Flight Track Log - Related Links

Times and Time Zones

All times are in EDT time to prevent confusion due to time zone crossing. See the JIA2442 flight status page for this flight to view local times or setup timezone preferences in your user account.

Time Position Orientation Groundspeed Altitude Reporting Facility
EDT Latitude Longitude Course Direction KTS MPH feet Rate Location/Type
02:41PM 34.1900 -79.7033 310° West  Level FlightAware Approximate
02:42PM 34.2326 -79.6713 289° West  Level FlightAware Approximate
02:43PM 34.2792 -79.8317 346° North 256 295 6,600  Level Jacksonville Center
02:44PM 34.3464 -79.8519 322° Northwest 256 295 9,200 2,100 Climbing Jacksonville Center
02:45PM 34.4061 -79.9078 308° West 256 295 10,900 900 Climbing Jacksonville Center
02:46PM 34.4625 -79.9942 309° West 281 323 11,000  Climbing Jacksonville Center
02:47PM 34.5003 -80.0508 309° West 350 403 11,000  Level FAA TRACON SMA TRACON (SMA)
02:48PM 34.5622 -80.1447 309° West 371 427 11,000  Level FAA TRACON SMA TRACON (SMA)
02:49PM 34.5911 -80.1878 310° West 364 419 11,000  Level FAA TRACON SMA TRACON (SMA)
02:49PM 34.6336 -80.2503 312° West 352 405 11,000  Level FAA TRACON SMA TRACON (SMA)
02:50PM 34.6783 -80.3108 314° West 348 400 11,000  Level FAA TRACON SMA TRACON (SMA)
02:51PM 34.7208 -80.3636 315° West 353 406 11,000  Level FAA TRACON SMA TRACON (SMA)
02:51PM 34.7764 -80.4317 314° West 357 411 11,000  Level FAA TRACON SMA TRACON (SMA)
02:52PM 34.8181 -80.4844 315° West 359 413 11,000  Level FAA TRACON SMA TRACON (SMA)
02:53PM 34.8625 -80.5392 315° West 364 419 11,000  Level FAA TRACON SMA TRACON (SMA)
02:53PM 34.9114 -80.5997 314° West 362 417 11,000  Level FAA TRACON SMA TRACON (SMA)
02:54PM 34.9592 -80.6597 314° West 359 413 11,000 -420 Level FAA TRACON SMA TRACON (SMA)
02:55PM 34.9994 -80.7100 315° West 341 392 10,500 -1,080 Descending FAA TRACON SMA TRACON (SMA)
02:55PM 35.0397 -80.7597 318° Northwest 300 345 9,600 -1,140 Descending FAA TRACON SMA TRACON (SMA)
02:56PM 35.0792 -80.8039 350° North 280 322 9,000 -480 Descending FAA TRACON SMA TRACON (SMA)
02:57PM 35.1339 -80.8153 359° North 292 336 9,000 -240 Level FAA TRACON SMA TRACON (SMA)
02:57PM 35.1842 -80.8167 36° Northeast 295 339 8,700 -1,140 Descending FAA TRACON SMA TRACON (SMA)
02:58PM 35.2292 -80.7761 50° Northeast 299 344 7,500 -2,040 Descending FAA TRACON SMA TRACON (SMA)
02:59PM 35.2661 -80.7228 30° Northeast 297 342 6,000 -1,800 Descending FAA TRACON SMA TRACON (SMA)
02:59PM 35.3078 -80.6936 30° Northeast 283 326 5,100 -1,320 Descending FAA TRACON SMA TRACON (SMA)